Terminal Aerodrome Forecast
Issued by NWS

Home | Current Version | Previous Version | Text Only | Print | Product List | Glossary On
Versions: 1 2 3 4 5 6 7 8 9 10 11
000
FTUS45 KGJT 240537 AAA
TAFVEL
TAF AMD
KVEL 240537Z 2406/2506 03005KT P6SM SCT250
     FM241000 31008KT P6SM SCT250
     FM241500 VRB03KT P6SM FEW250
     FM242000 26007KT P6SM FEW250
     FM250200 32006KT P6SM FEW250=

USA.gov is the U.S. government's official web portal to all federal, state and local government web resources and services.